Time;durP1;ratioP1;P1;durP2;ratioP2;P2;SDS_P1;SDS_P2;PMS_P1;PMS_P2;Temp;Humidity;BMP_temperature;BMP_pressure;BME280_temperature;BME280_humidity;BME280_pressure;Samples;Min_cycle;Max_cycle;Signal;HPM_P1;HPM_P2
2022/12/26 00:01:12;;;;;;;;;;;;;;;21.15;29.05;98832.28;5098445;28;904;-77
2022/12/26 00:03:37;;;;;;;;;;;;;;;21.22;28.87;98842.69;5096008;28;1098;-77
2022/12/26 00:06:03;;;;;;;;;;;;;;;21.42;28.39;98843.69;5098995;28;984;-77
2022/12/26 00:08:28;;;;;;;;;;;;;;;21.13;28.83;98839.56;5096753;28;1965;-76
2022/12/26 00:10:53;;;;;;;;;;;;;;;21.16;28.61;98845.19;5098308;28;913;-76
2022/12/26 00:13:19;;;;;;;;;;;;;;;21.08;28.86;98843.66;5097401;28;975;-77
2022/12/26 00:15:44;;;;;;;;;;;;;;;21.14;28.79;98844.81;5098156;28;872;-76
2022/12/26 00:18:10;;;;;;;;;;;;;;;21.29;28.69;98843.41;5097636;28;927;-76
2022/12/26 00:20:35;;;;;;;;;;;;;;;21.35;28.60;98857.97;5097850;28;981;-76
2022/12/26 00:23:00;;;;;;;;;;;;;;;21.09;28.71;98856.59;5097308;28;942;-76
2022/12/26 00:25:26;;;;;;;;;;;;;;;21.31;28.26;98858.00;5097246;28;981;-76
2022/12/26 00:27:51;;;;;;;;;;;;;;;20.84;28.99;98864.53;5097341;28;1982;-77
2022/12/26 00:30:17;;;;;;;;;;;;;;;21.13;28.79;98868.66;5097609;28;1265;-77
2022/12/26 00:32:42;;;;;;;;;;;;;;;21.27;28.58;98862.84;5097866;28;948;-76
2022/12/26 00:35:08;;;;;;;;;;;;;;;21.44;28.40;98868.75;5097278;28;1053;-77
2022/12/26 00:37:33;;;;;;;;;;;;;;;21.17;28.56;98869.44;5096735;28;1001;-77
2022/12/26 00:39:59;;;;;;;;;;;;;;;21.01;28.96;98872.03;5097439;28;1218;-77
2022/12/26 00:42:25;;;;;;;;;;;;;;;21.00;29.09;98870.44;5097960;28;962;-76
2022/12/26 00:44:50;;;;;;;;;;;;;;;20.83;29.48;98874.22;5097396;28;940;-76
2022/12/26 00:47:15;;;;;;;;;;;;;;;21.23;28.55;98873.41;5097605;28;1972;-77
2022/12/26 00:49:41;;;;;;;;;;;;;;;21.44;28.36;98872.38;5096978;28;1028;-76
2022/12/26 00:52:06;;;;;;;;;;;;;;;21.26;28.59;98872.56;5096720;28;969;-76
2022/12/26 00:54:32;;;;;;;;;;;;;;;20.97;28.92;98866.41;5097522;28;1041;-76
2022/12/26 00:56:57;;;;;;;;;;;;;;;20.88;28.83;98873.78;5097961;28;903;-76
2022/12/26 00:59:23;;;;;;;;;;;;;;;21.25;28.68;98873.81;5097206;28;949;-76
2022/12/26 01:01:48;;;;;;;;;;;;;;;21.48;28.23;98869.50;5097427;28;1014;-76
2022/12/26 01:04:14;;;;;;;;;;;;;;;21.61;27.63;98859.25;5096754;28;883;-77
2022/12/26 01:06:39;;;;;;;;;;;;;;;21.23;28.18;98864.91;5097432;28;1902;-76
2022/12/26 01:09:05;;;;;;;;;;;;;;;21.09;28.39;98870.75;5097051;28;875;-77
2022/12/26 01:11:39;;;;;;;;;;;;;;;20.96;28.79;98864.00;5096502;28;954;-76
2022/12/26 01:14:09;;;;;;;;;;;;;;;21.32;28.27;98851.09;5096919;28;1066;-76
2022/12/26 01:16:34;;;;;;;;;;;;;;;21.75;27.58;98853.38;5097447;28;1207;-77
2022/12/26 01:19:00;;;;;;;;;;;;;;;21.37;28.18;98860.34;5095535;28;1854;-76
2022/12/26 01:21:26;;;;;;;;;;;;;;;21.10;28.55;98858.22;5097098;28;934;-76
2022/12/26 01:23:52;;;;;;;;;;;;;;;20.93;28.50;98873.31;5096757;28;1095;-77
2022/12/26 01:26:18;;;;;;;;;;;;;;;20.89;28.75;98872.59;5097720;28;1981;-76
2022/12/26 01:28:44;;;;;;;;;;;;;;;21.26;28.21;98866.91;5096628;28;1006;-76
2022/12/26 01:31:09;;;;;;;;;;;;;;;21.42;27.88;98871.22;5097600;28;1006;-77
2022/12/26 01:33:35;;;;;;;;;;;;;;;21.54;27.81;98859.31;5096771;28;916;-76
2022/12/26 01:36:00;;;;;;;;;;;;;;;21.12;28.25;98860.59;5063387;28;941;-77
2022/12/26 01:38:26;;;;;;;;;;;;;;;20.93;28.44;98864.84;5100290;28;924;-77
2022/12/26 01:41:15;;;;;;;;;;;;;;;20.80;28.91;98862.53;5101148;28;842;-77
2022/12/26 01:43:47;;;;;;;;;;;;;;;21.39;27.80;98855.06;5099991;28;1098;-76
2022/12/26 01:46:12;;;;;;;;;;;;;;;21.59;27.77;98858.84;5101640;28;1902;-76
2022/12/26 01:48:37;;;;;;;;;;;;;;;21.39;27.86;98852.22;5099145;28;901;-76
2022/12/26 01:51:03;;;;;;;;;;;;;;;20.93;28.38;98853.53;5100665;28;910;-76
2022/12/26 01:53:30;;;;;;;;;;;;;;;21.03;28.39;98861.09;5099048;28;992;-76
2022/12/26 01:55:57;;;;;;;;;;;;;;;20.81;28.61;98869.81;5099831;28;995;-76
2022/12/26 01:58:27;;;;;;;;;;;;;;;21.12;28.40;98867.06;5099160;28;1028;-77
2022/12/26 02:00:52;;;;;;;;;;;;;;;21.23;28.14;98872.59;5099668;28;1017;-77
2022/12/26 02:06:02;;;;;;;;;;;;;;;21.23;27.89;98883.94;5100048;28;914;-77
2022/12/26 02:08:28;;;;;;;;;;;;;;;21.00;28.52;98876.09;5076981;28;1913;-77
2022/12/26 02:11:02;;;;;;;;;;;;;;;21.02;28.23;98888.59;5061444;28;1052;-76
2022/12/26 02:13:28;;;;;;;;;;;;;;;20.99;28.60;98891.47;5060677;28;978;-76
2022/12/26 02:15:54;;;;;;;;;;;;;;;21.22;27.92;98894.44;5077875;28;986;-77
2022/12/26 02:18:19;;;;;;;;;;;;;;;21.44;27.57;98894.22;5076857;28;982;-77
2022/12/26 02:20:55;;;;;;;;;;;;;;;21.17;27.88;98892.06;5077812;28;1283;-77
2022/12/26 02:23:20;;;;;;;;;;;;;;;20.94;28.58;98894.75;5077021;28;1015;-77
2022/12/26 02:26:04;;;;;;;;;;;;;;;20.72;28.51;98889.28;5077923;28;1197;-76
2022/12/26 02:28:38;;;;;;;;;;;;;;;21.32;27.73;98893.56;5076601;28;1909;-77
2022/12/26 02:31:09;;;;;;;;;;;;;;;21.43;27.76;98892.63;5077835;28;1079;-77
2022/12/26 02:33:58;;;;;;;;;;;;;;;21.50;27.55;98898.19;5076966;28;1048;-77
2022/12/26 02:36:32;;;;;;;;;;;;;;;21.03;28.31;98890.19;4998399;28;1054;-77
2022/12/26 02:38:57;;;;;;;;;;;;;;;20.98;28.21;98887.00;5003062;28;1082;-77
2022/12/26 02:41:32;;;;;;;;;;;;;;;20.91;28.32;98875.78;5017732;28;894;-76
2022/12/26 02:47:01;;;;;;;;;;;;;;;21.46;27.41;98872.78;5000375;28;1258;-76
2022/12/26 02:47:19;;;;;;;;;;;;;;;21.62;27.42;98886.34;5016940;28;1906;-76
2022/12/26 03:17:18;;;;;;;;;;;;;;;21.45;27.61;98871.19;5017080;28;932;-77
2022/12/26 03:18:18;;;;;;;;;;;;;;;21.20;27.69;98874.28;5002504;28;949;-77
2022/12/26 03:20:43;;;;;;;;;;;;;;;20.91;28.42;98872.94;4958381;29;1109;-77
2022/12/26 03:23:10;;;;;;;;;;;;;;;21.00;28.20;98881.75;4942247;29;1188;-76
2022/12/26 03:28:23;;;;;;;;;;;;;;;21.42;27.46;98885.38;4963619;28;1910;-76
2022/12/26 03:30:49;;;;;;;;;;;;;;;21.25;27.44;98879.47;5039060;28;1269;-77
2022/12/26 03:36:00;;;;;;;;;;;;;;;21.12;27.79;98881.22;5057110;28;1016;-76
2022/12/26 03:38:29;;;;;;;;;;;;;;;21.10;27.71;98875.19;5038623;28;1043;-76
2022/12/26 04:20:17;;;;;;;;;;;;;;;21.06;27.84;98888.56;5095723;28;1173;-78
2022/12/26 04:45:12;;;;;;;;;;;;;;;21.21;27.30;98892.03;5060428;28;1025;-77
2022/12/26 04:50:10;;;;;;;;;;;;;;;21.00;27.50;98895.91;5058234;28;1902;-78
2022/12/26 04:50:23;;;;;;;;;;;;;;;21.05;27.55;98906.78;5075346;28;988;-78
2022/12/26 04:52:57;;;;;;;;;;;;;;;21.31;27.29;98908.94;5075599;28;1025;-78
2022/12/26 04:55:29;;;;;;;;;;;;;;;21.46;27.08;98931.44;5075018;28;991;-79
2022/12/26 04:57:55;;;;;;;;;;;;;;;21.33;27.00;98939.66;5075121;28;912;-79
2022/12/26 05:00:21;;;;;;;;;;;;;;;20.95;27.63;98935.97;5075176;28;979;-78
2022/12/26 05:11:07;;;;;;;;;;;;;;;21.44;26.87;98946.00;5091058;28;1007;-79
2022/12/26 05:13:32;;;;;;;;;;;;;;;21.20;27.50;98953.50;5101108;28;887;-78
2022/12/26 05:29:37;;;;;;;;;;;;;;;21.06;27.29;98970.63;5101268;28;948;-78
2022/12/26 05:32:02;;;;;;;;;;;;;;;21.01;27.47;98968.25;5101170;28;1035;-78
2022/12/26 05:34:28;;;;;;;;;;;;;;;21.30;27.26;98975.28;5100725;28;1022;-78
2022/12/26 05:36:55;;;;;;;;;;;;;;;21.36;27.24;98972.00;5101585;28;1009;-78
2022/12/26 05:39:20;;;;;;;;;;;;;;;21.05;27.27;98974.69;5099793;28;977;-77
2022/12/26 05:41:46;;;;;;;;;;;;;;;20.92;27.56;98970.75;5101971;28;964;-78
2022/12/26 05:44:12;;;;;;;;;;;;;;;20.99;27.44;98971.50;5100716;28;847;-78
2022/12/26 05:46:38;;;;;;;;;;;;;;;21.31;27.04;98979.72;5101088;28;1952;-78
2022/12/26 05:49:03;;;;;;;;;;;;;;;21.42;26.90;98975.97;5100945;28;882;-78
2022/12/26 05:51:29;;;;;;;;;;;;;;;21.48;26.74;98975.09;5101285;28;1008;-78
2022/12/26 05:53:54;;;;;;;;;;;;;;;21.13;27.05;98970.53;5099335;28;971;-79
2022/12/26 05:56:20;;;;;;;;;;;;;;;21.00;27.37;98972.31;5101388;28;979;-78
2022/12/26 05:58:45;;;;;;;;;;;;;;;21.22;27.03;98973.69;5099876;28;918;-78
2022/12/26 06:01:15;;;;;;;;;;;;;;;21.35;27.14;98971.19;5100943;28;856;-78
2022/12/26 06:03:42;;;;;;;;;;;;;;;21.38;27.09;98966.69;5100089;28;901;-78
2022/12/26 06:06:07;;;;;;;;;;;;;;;21.41;26.76;98969.50;5101626;28;866;-78
2022/12/26 06:08:33;;;;;;;;;;;;;;;21.01;27.19;98971.06;5100051;28;1910;-78
2022/12/26 06:11:01;;;;;;;;;;;;;;;20.85;27.53;98967.97;5101311;28;947;-78
2022/12/26 06:13:26;;;;;;;;;;;;;;;20.74;27.80;98960.38;5098966;28;1047;-78
2022/12/26 06:15:52;;;;;;;;;;;;;;;20.99;27.73;98959.38;5099657;28;1340;-78
2022/12/26 06:18:17;;;;;;;;;;;;;;;21.25;27.20;98955.88;5080553;28;1018;-78
2022/12/26 06:20:43;;;;;;;;;;;;;;;21.41;26.92;98963.03;5100678;28;919;-78
2022/12/26 06:23:08;;;;;;;;;;;;;;;21.40;26.82;98961.41;5079793;28;964;-78
2022/12/26 06:25:34;;;;;;;;;;;;;;;21.46;26.60;98965.41;5100547;28;947;-78
2022/12/26 06:27:59;;;;;;;;;;;;;;;21.22;26.88;98961.56;5100318;28;1914;-78
2022/12/26 06:30:25;;;;;;;;;;;;;;;21.01;27.26;98968.25;5099670;28;988;-78
2022/12/26 06:32:51;;;;;;;;;;;;;;;20.72;27.71;98968.47;5099737;28;889;-78
2022/12/26 06:35:18;;;;;;;;;;;;;;;20.77;28.16;98965.19;5099877;28;929;-78
2022/12/26 06:37:43;;;;;;;;;;;;;;;21.11;27.23;98972.19;5100314;28;1172;-78
2022/12/26 06:40:09;;;;;;;;;;;;;;;21.14;27.12;98977.84;5099737;28;949;-79
2022/12/26 06:42:34;;;;;;;;;;;;;;;21.28;27.29;98977.69;5100523;28;1106;-78
2022/12/26 06:45:00;;;;;;;;;;;;;;;20.95;27.52;98975.56;5098392;28;907;-78
2022/12/26 06:47:25;;;;;;;;;;;;;;;20.71;27.92;98983.84;5100304;28;1902;-77
2022/12/26 06:49:51;;;;;;;;;;;;;;;20.84;27.73;98986.97;5099376;28;913;-78
2022/12/26 06:52:16;;;;;;;;;;;;;;;21.24;27.17;98982.59;5100432;28;934;-78
2022/12/26 06:54:42;;;;;;;;;;;;;;;21.40;26.76;98984.06;5099356;28;974;-79
2022/12/26 06:57:07;;;;;;;;;;;;;;;21.48;26.80;98985.59;5098856;28;2354;-79
2022/12/26 06:59:33;;;;;;;;;;;;;;;21.16;27.37;98998.03;5099532;28;868;-79
2022/12/26 07:01:58;;;;;;;;;;;;;;;20.85;27.94;99010.41;5098882;28;1105;-79
2022/12/26 07:04:24;;;;;;;;;;;;;;;20.81;28.02;99010.44;5098126;28;1123;-77
2022/12/26 07:06:49;;;;;;;;;;;;;;;20.78;27.94;99012.06;5098394;28;1883;-78
2022/12/26 07:09:15;;;;;;;;;;;;;;;21.14;27.39;99010.97;5097948;28;960;-79
2022/12/26 07:11:45;;;;;;;;;;;;;;;21.22;27.21;99018.97;5081835;28;914;-78
2022/12/26 07:14:12;;;;;;;;;;;;;;;21.23;27.28;99020.59;5098187;28;997;-78
2022/12/26 07:16:38;;;;;;;;;;;;;;;20.85;27.72;99021.72;5098879;28;884;-78
2022/12/26 07:19:03;;;;;;;;;;;;;;;20.53;28.59;99017.91;5097853;28;877;-78
2022/12/26 07:21:29;;;;;;;;;;;;;;;21.09;27.72;99020.72;5077109;28;992;-79
2022/12/26 07:23:54;;;;;;;;;;;;;;;21.38;27.26;99014.84;5076026;28;1011;-79
2022/12/26 07:26:20;;;;;;;;;;;;;;;21.41;26.85;99008.34;5060575;28;1061;-78
2022/12/26 07:28:45;;;;;;;;;;;;;;;21.05;27.45;99019.94;5059320;28;1973;-78
2022/12/26 07:31:15;;;;;;;;;;;;;;;20.81;27.77;99004.78;5077270;28;1583;-78
2022/12/26 07:33:40;;;;;;;;;;;;;;;20.69;28.06;99025.88;5058706;28;1048;-78
2022/12/26 07:36:06;;;;;;;;;;;;;;;21.10;27.68;99021.53;5077236;28;1047;-78
2022/12/26 07:38:31;;;;;;;;;;;;;;;21.05;27.46;99019.94;5075434;28;1064;-78
2022/12/26 07:40:57;;;;;;;;;;;;;;;21.22;27.22;99024.66;5060437;28;1458;-78
2022/12/26 07:43:24;;;;;;;;;;;;;;;21.28;27.28;99022.16;5059183;28;1189;-78
2022/12/26 07:45:50;;;;;;;;;;;;;;;21.00;27.49;99023.22;5060028;28;929;-78
2022/12/26 07:48:15;;;;;;;;;;;;;;;20.92;27.91;99030.16;5075869;28;1906;-79
2022/12/26 07:50:44;;;;;;;;;;;;;;;20.88;27.91;99023.72;5060107;28;1030;-78
2022/12/26 07:53:09;;;;;;;;;;;;;;;20.95;27.97;99035.00;5088284;28;913;-78
2022/12/26 07:55:35;;;;;;;;;;;;;;;21.13;27.60;99029.97;5099154;28;1028;-78
2022/12/26 07:58:00;;;;;;;;;;;;;;;20.95;27.62;99032.97;5099015;28;918;-78
2022/12/26 08:00:25;;;;;;;;;;;;;;;21.02;27.77;99035.72;5080923;28;866;-78
2022/12/26 08:02:52;;;;;;;;;;;;;;;20.89;28.05;99042.31;5097287;28;868;-78
2022/12/26 08:05:19;;;;;;;;;;;;;;;20.94;27.88;99030.56;5098586;28;949;-79
2022/12/26 08:07:48;;;;;;;;;;;;;;;21.29;27.49;99035.91;5097427;28;1905;-78
2022/12/26 08:10:14;;;;;;;;;;;;;;;21.01;27.45;99034.13;5098711;28;1004;-78
2022/12/26 08:12:39;;;;;;;;;;;;;;;20.85;27.96;99024.56;5098515;28;945;-77
2022/12/26 08:15:05;;;;;;;;;;;;;;;20.74;27.98;99033.91;5098089;28;1077;-79
2022/12/26 08:17:31;;;;;;;;;;;;;;;21.07;27.88;99023.97;5098514;28;1272;-79
2022/12/26 08:19:58;;;;;;;;;;;;;;;21.31;27.33;99030.66;5098178;28;874;-79
2022/12/26 08:22:23;;;;;;;;;;;;;;;21.44;27.15;99024.47;5098432;28;988;-78
2022/12/26 08:24:49;;;;;;;;;;;;;;;20.96;27.97;99028.09;5097777;28;950;-78
2022/12/26 08:27:15;;;;;;;;;;;;;;;20.75;28.20;99026.25;5098593;28;1906;-78
2022/12/26 08:29:40;;;;;;;;;;;;;;;20.61;28.55;99018.66;5097526;28;906;-78
2022/12/26 08:32:06;;;;;;;;;;;;;;;20.94;27.97;99011.56;5098417;28;1088;-78
2022/12/26 08:34:32;;;;;;;;;;;;;;;21.08;27.75;99007.78;5097580;28;952;-78
2022/12/26 08:36:57;;;;;;;;;;;;;;;21.36;27.30;99003.94;5097675;28;926;-78
2022/12/26 08:39:23;;;;;;;;;;;;;;;21.33;27.07;98996.28;5097818;28;913;-78
2022/12/26 08:41:48;;;;;;;;;;;;;;;20.91;27.83;98997.44;5097695;28;1013;-78
2022/12/26 08:44:16;;;;;;;;;;;;;;;20.86;28.04;98995.03;5097275;28;917;-78
2022/12/26 08:46:42;;;;;;;;;;;;;;;20.93;27.95;98992.16;5062254;28;1977;-78
2022/12/26 08:49:07;;;;;;;;;;;;;;;21.16;27.55;98986.69;5097848;28;900;-78
2022/12/26 08:51:33;;;;;;;;;;;;;;;21.28;27.61;98988.19;5098001;28;1063;-78
2022/12/26 08:53:58;;;;;;;;;;;;;;;21.12;27.47;98991.59;5097818;28;865;-78
2022/12/26 08:56:24;;;;;;;;;;;;;;;20.89;27.89;98982.91;5098131;28;1145;-78
2022/12/26 08:58:50;;;;;;;;;;;;;;;20.80;28.09;98987.00;5097126;28;1171;-78
2022/12/26 09:01:16;;;;;;;;;;;;;;;21.06;27.88;98979.13;5097833;28;1076;-78
2022/12/26 09:03:42;;;;;;;;;;;;;;;21.25;27.62;98978.53;5095930;28;956;-78
2022/12/26 09:06:07;;;;;;;;;;;;;;;21.23;27.44;98975.31;5098277;28;910;-78
2022/12/26 09:08:33;;;;;;;;;;;;;;;21.20;27.45;98973.31;5096758;28;1921;-78
2022/12/26 09:11:18;;;;;;;;;;;;;;;21.03;27.86;98975.06;5098538;28;1029;-78
2022/12/26 09:13:43;;;;;;;;;;;;;;;20.66;28.57;98967.31;5074095;28;941;-79
2022/12/26 09:16:10;;;;;;;;;;;;;;;20.86;28.11;98967.56;5075907;28;1036;-78
2022/12/26 09:18:36;;;;;;;;;;;;;;;21.08;27.91;98965.34;5074225;28;962;-78
2022/12/26 09:21:01;;;;;;;;;;;;;;;21.27;27.68;98964.75;5058597;28;1002;-78
2022/12/26 09:23:27;;;;;;;;;;;;;;;21.22;27.48;98959.53;5073974;28;1068;-78
2022/12/26 09:25:53;;;;;;;;;;;;;;;21.35;27.20;98948.53;5075553;28;1112;-78
2022/12/26 09:28:18;;;;;;;;;;;;;;;21.05;27.79;98952.84;5073893;28;1909;-78
2022/12/26 09:30:43;;;;;;;;;;;;;;;20.97;27.83;98953.31;5074898;28;1217;-78
2022/12/26 09:33:09;;;;;;;;;;;;;;;20.87;27.98;98938.03;5073902;28;1012;-78
2022/12/26 09:35:34;;;;;;;;;;;;;;;21.17;27.73;98943.03;5075177;28;1036;-78
2022/12/26 09:38:00;;;;;;;;;;;;;;;21.25;27.54;98943.78;5071980;28;1072;-77
2022/12/26 09:40:26;;;;;;;;;;;;;;;21.46;27.00;98937.09;5057890;28;1390;-78
2022/12/26 09:42:55;;;;;;;;;;;;;;;21.23;27.23;98938.50;5057808;28;1093;-78
2022/12/26 09:45:24;;;;;;;;;;;;;;;20.89;28.37;98940.47;5091470;28;1020;-78
2022/12/26 09:47:50;;;;;;;;;;;;;;;20.73;28.21;98930.50;5095369;28;1951;-78
2022/12/26 09:50:19;;;;;;;;;;;;;;;20.99;28.13;98942.41;5060699;28;1001;-79
2022/12/26 09:52:52;;;;;;;;;;;;;;;21.16;27.82;98941.41;5096008;28;898;-78
2022/12/26 09:55:23;;;;;;;;;;;;;;;21.24;27.66;98942.97;5095818;28;914;-78
2022/12/26 09:57:50;;;;;;;;;;;;;;;21.09;27.61;98935.84;5098873;28;880;-78
2022/12/26 10:00:18;;;;;;;;;;;;;;;21.04;27.66;98944.78;5100403;28;919;-78
2022/12/26 10:02:48;;;;;;;;;;;;;;;20.94;27.65;98934.38;5100899;28;890;-78
2022/12/26 10:05:14;;;;;;;;;;;;;;;21.03;28.05;98943.16;5099047;28;934;-78
2022/12/26 10:07:41;;;;;;;;;;;;;;;21.21;27.72;98938.13;5100457;28;1971;-78
2022/12/26 10:10:11;;;;;;;;;;;;;;;21.24;27.48;98937.31;5099228;28;978;-78
2022/12/26 10:12:36;;;;;;;;;;;;;;;21.27;27.40;98936.44;5100432;28;957;-79
2022/12/26 10:15:05;;;;;;;;;;;;;;;21.12;27.52;98937.00;5098962;28;1558;-77
2022/12/26 10:17:34;;;;;;;;;;;;;;;20.75;27.79;98936.53;5099951;28;1181;-78
2022/12/26 10:19:59;;;;;;;;;;;;;;;20.76;28.43;98932.47;5099834;28;969;-78
2022/12/26 10:22:31;;;;;;;;;;;;;;;21.10;27.63;98922.50;5099931;28;1076;-78
2022/12/26 10:24:57;;;;;;;;;;;;;;;21.29;27.37;98910.53;5099602;28;929;-78
2022/12/26 10:27:22;;;;;;;;;;;;;;;21.33;27.20;98911.34;5099409;28;1910;-78
2022/12/26 10:29:50;;;;;;;;;;;;;;;20.99;27.57;98903.59;5098720;28;1082;-78
2022/12/26 10:32:20;;;;;;;;;;;;;;;21.00;27.79;98907.22;5099300;28;1172;-78
2022/12/26 10:34:47;;;;;;;;;;;;;;;21.01;28.11;98894.69;5099632;28;1452;-78
2022/12/26 10:37:26;;;;;;;;;;;;;;;21.10;27.60;98902.69;5100764;28;908;-78
2022/12/26 10:40:03;;;;;;;;;;;;;;;21.20;27.67;98905.41;5098708;28;1013;-78
2022/12/26 10:42:36;;;;;;;;;;;;;;;20.98;27.62;98904.00;5100401;28;954;-78
2022/12/26 10:45:03;;;;;;;;;;;;;;;21.05;27.52;98903.94;5097321;28;957;-78
2022/12/26 10:47:39;;;;;;;;;;;;;;;20.78;27.81;98901.78;5081817;28;1972;-78
2022/12/26 10:50:04;;;;;;;;;;;;;;;21.07;27.76;98902.28;5099738;28;961;-79
2022/12/26 10:52:37;;;;;;;;;;;;;;;21.18;27.51;98905.00;5100158;28;986;-78
2022/12/26 10:55:02;;;;;;;;;;;;;;;21.30;27.49;98901.69;5081212;28;1534;-78
2022/12/26 10:57:29;;;;;;;;;;;;;;;20.86;27.85;98893.22;5098678;28;895;-78
2022/12/26 10:59:54;;;;;;;;;;;;;;;20.54;28.35;98889.44;5081275;28;970;-78
2022/12/26 11:02:23;;;;;;;;;;;;;;;20.65;28.48;98895.00;5098170;28;931;-78
2022/12/26 11:04:57;;;;;;;;;;;;;;;21.19;27.57;98895.31;5099210;28;860;-77
2022/12/26 11:07:23;;;;;;;;;;;;;;;21.29;27.21;98887.91;5099272;28;1959;-78
2022/12/26 11:09:48;;;;;;;;;;;;;;;21.33;27.21;98883.03;5097312;28;966;-78
2022/12/26 11:12:18;;;;;;;;;;;;;;;20.81;28.15;98875.47;5098599;28;923;-78
2022/12/26 11:14:44;;;;;;;;;;;;;;;20.89;27.86;98875.41;5097619;28;1146;-78
2022/12/26 11:17:23;;;;;;;;;;;;;;;20.73;28.11;98868.28;5080867;28;995;-78
2022/12/26 11:19:48;;;;;;;;;;;;;;;21.26;27.41;98863.28;5097640;28;1015;-78
2022/12/26 11:22:24;;;;;;;;;;;;;;;21.24;27.42;98852.38;5099414;28;937;-78
2022/12/26 11:25:08;;;;;;;;;;;;;;;21.22;27.48;98854.81;5097462;28;974;-78
2022/12/26 11:27:33;;;;;;;;;;;;;;;20.99;27.80;98858.31;5098568;28;2013;-78
2022/12/26 11:30:14;;;;;;;;;;;;;;;20.94;27.81;98857.97;5097313;28;1439;-78
2022/12/26 11:32:40;;;;;;;;;;;;;;;20.71;28.30;98850.09;5098711;28;1229;-78
2022/12/26 11:35:06;;;;;;;;;;;;;;;20.98;28.04;98838.91;5097472;28;956;-78
2022/12/26 11:37:38;;;;;;;;;;;;;;;21.18;27.84;98841.94;5098039;28;910;-78
2022/12/26 11:40:04;;;;;;;;;;;;;;;21.24;27.48;98841.06;5096743;28;874;-78
2022/12/26 11:42:29;;;;;;;;;;;;;;;21.04;27.55;98834.44;5097575;28;974;-78
2022/12/26 11:44:55;;;;;;;;;;;;;;;20.88;27.91;98834.19;5098589;28;911;-78
2022/12/26 11:47:29;;;;;;;;;;;;;;;20.79;28.08;98829.84;5076268;28;1898;-78
2022/12/26 11:50:20;;;;;;;;;;;;;;;20.95;28.06;98834.13;5058514;28;1053;-78
2022/12/26 11:53:02;;;;;;;;;;;;;;;21.10;27.81;98832.75;4996446;28;1062;-78
2022/12/26 11:55:28;;;;;;;;;;;;;;;21.37;27.41;98834.88;4980463;28;1036;-77
2022/12/26 11:58:00;;;;;;;;;;;;;;;21.19;27.47;98826.56;4996696;28;1000;-78
2022/12/26 12:00:26;;;;;;;;;;;;;;;20.96;27.73;98819.53;4996691;28;1018;-78
2022/12/26 12:02:52;;;;;;;;;;;;;;;20.66;28.21;98827.94;4980230;28;1025;-78
2022/12/26 12:05:36;;;;;;;;;;;;;;;20.68;28.44;98820.66;4957983;29;1173;-78
2022/12/26 12:08:20;;;;;;;;;;;;;;;21.19;27.63;98833.03;4957295;29;1969;-78
2022/12/26 12:10:47;;;;;;;;;;;;;;;21.44;27.14;98823.44;4958199;29;1098;-78
2022/12/26 12:13:12;;;;;;;;;;;;;;;21.17;27.24;98834.69;4957026;29;1075;-78
2022/12/26 12:15:52;;;;;;;;;;;;;;;21.04;27.56;98837.25;4957864;29;1342;-78
2022/12/26 12:18:36;;;;;;;;;;;;;;;20.72;28.01;98826.25;4956954;29;961;-78
2022/12/26 12:21:20;;;;;;;;;;;;;;;21.06;28.05;98826.31;4957588;28;1104;-78
2022/12/26 12:24:04;;;;;;;;;;;;;;;21.05;27.78;98827.53;4957093;29;1036;-78
2022/12/26 12:26:41;;;;;;;;;;;;;;;21.29;27.35;98819.97;4958250;29;1009;-78
2022/12/26 12:29:06;;;;;;;;;;;;;;;20.90;27.84;98826.09;4984693;28;999;-78
2022/12/26 12:31:32;;;;;;;;;;;;;;;20.64;28.17;98825.53;5055621;28;1278;-78
2022/12/26 12:34:20;;;;;;;;;;;;;;;20.58;28.70;98821.56;5055441;28;1213;-78
2022/12/26 12:36:46;;;;;;;;;;;;;;;21.16;27.52;98828.22;5017913;28;1059;-78
2022/12/26 12:39:30;;;;;;;;;;;;;;;21.30;27.21;98833.75;5035294;28;1113;-78
2022/12/26 12:41:58;;;;;;;;;;;;;;;21.25;27.36;98842.66;5035911;28;1018;-78
2022/12/26 12:44:29;;;;;;;;;;;;;;;20.89;27.88;98842.25;5034945;28;1005;-78
2022/12/26 12:47:09;;;;;;;;;;;;;;;20.56;28.27;98840.94;5019116;28;1902;-78
2022/12/26 12:49:38;;;;;;;;;;;;;;;20.74;28.43;98838.78;5018586;28;989;-78
2022/12/26 12:52:10;;;;;;;;;;;;;;;21.25;27.54;98839.03;5035865;28;990;-78
2022/12/26 12:54:51;;;;;;;;;;;;;;;21.19;27.52;98837.88;5018328;28;1256;-78
2022/12/26 12:57:16;;;;;;;;;;;;;;;21.13;27.60;98829.03;5002341;28;978;-77
2022/12/26 13:00:00;;;;;;;;;;;;;;;20.81;28.00;98841.53;5034644;28;1077;-78
2022/12/26 13:02:31;;;;;;;;;;;;;;;20.71;28.29;98825.47;5035639;28;1003;-79
2022/12/26 13:05:17;;;;;;;;;;;;;;;20.97;27.91;98826.00;5034692;28;1349;-78
2022/12/26 13:07:44;;;;;;;;;;;;;;;21.37;27.37;98832.84;5034577;28;1918;-78
2022/12/26 13:10:15;;;;;;;;;;;;;;;21.44;27.13;98829.91;5018684;28;948;-78
2022/12/26 13:12:41;;;;;;;;;;;;;;;20.98;27.73;98833.25;5022349;28;1171;-78
2022/12/26 13:15:06;;;;;;;;;;;;;;;20.70;28.31;98826.69;5097851;28;1016;-78
2022/12/26 13:17:33;;;;;;;;;;;;;;;21.02;27.85;98825.53;5098261;28;1143;-78
2022/12/26 13:20:00;;;;;;;;;;;;;;;21.23;27.60;98838.63;5096341;28;1077;-79
2022/12/26 13:25:49;;;;;;;;;;;;;;;21.14;27.63;98830.69;5015680;28;1103;-79
2022/12/26 13:28:18;;;;;;;;;;;;;;;20.84;28.21;98833.44;5015047;28;1906;-78
2022/12/26 13:30:44;;;;;;;;;;;;;;;20.73;28.22;98837.16;5015121;28;1236;-78
2022/12/26 13:33:11;;;;;;;;;;;;;;;21.15;27.89;98832.28;5018153;28;931;-78
2022/12/26 13:35:56;;;;;;;;;;;;;;;21.25;27.44;98830.56;5018870;28;1009;-78
2022/12/26 13:38:21;;;;;;;;;;;;;;;21.25;27.36;98831.34;5018020;28;1161;-78
2022/12/26 13:43:53;;;;;;;;;;;;;;;21.42;27.17;98828.75;5019588;28;1020;-78
2022/12/26 13:44:02;;;;;;;;;;;;;;;21.01;27.90;98821.91;5017862;28;1050;-78
2022/12/26 13:46:33;;;;;;;;;;;;;;;20.92;27.89;98817.97;5019301;28;1038;-78
2022/12/26 13:48:59;;;;;;;;;;;;;;;20.79;28.22;98824.19;5018377;28;1948;-79
2022/12/26 13:51:40;;;;;;;;;;;;;;;21.22;27.87;98823.69;5019245;28;990;-78
2022/12/26 13:54:08;;;;;;;;;;;;;;;21.32;27.50;98819.97;5017974;28;1049;-78
2022/12/26 13:56:39;;;;;;;;;;;;;;;21.32;27.66;98819.97;5019154;28;913;-78
2022/12/26 13:59:12;;;;;;;;;;;;;;;21.03;27.79;98824.31;5018270;28;1030;-78
2022/12/26 14:02:01;;;;;;;;;;;;;;;20.86;28.02;98830.97;5046547;28;1001;-77
2022/12/26 14:04:44;;;;;;;;;;;;;;;20.55;28.59;98828.03;5038235;28;1072;-78
2022/12/26 14:07:13;;;;;;;;;;;;;;;21.16;27.92;98822.56;5038672;28;1977;-79
2022/12/26 14:09:38;;;;;;;;;;;;;;;21.43;27.22;98853.00;5037777;28;1028;-78
2022/12/26 14:12:21;;;;;;;;;;;;;;;21.33;27.62;98824.38;5022844;28;1003;-79
2022/12/26 14:15:05;;;;;;;;;;;;;;;20.98;27.72;98821.94;5037674;28;931;-78
2022/12/26 14:17:34;;;;;;;;;;;;;;;20.88;27.99;98817.19;5038167;28;950;-78
2022/12/26 14:20:19;;;;;;;;;;;;;;;20.65;28.53;98827.13;5021246;28;1044;-78
2022/12/26 14:22:59;;;;;;;;;;;;;;;21.13;27.95;98812.06;5037647;28;909;-77
2022/12/26 14:25:43;;;;;;;;;;;;;;;21.30;27.41;98811.09;5017977;28;914;-78
2022/12/26 14:28:24;;;;;;;;;;;;;;;21.43;27.21;98810.53;5017312;28;1975;-78
2022/12/26 14:30:52;;;;;;;;;;;;;;;21.05;27.52;98799.25;5018110;28;1013;-78
2022/12/26 14:33:23;;;;;;;;;;;;;;;21.04;27.70;98808.97;5017508;28;1016;-78
2022/12/26 14:35:51;;;;;;;;;;;;;;;20.62;28.33;98794.03;5018388;28;977;-78
2022/12/26 14:38:23;;;;;;;;;;;;;;;21.06;27.95;98795.19;5017837;28;947;-78
2022/12/26 14:41:00;;;;;;;;;;;;;;;21.23;27.49;98802.66;5035481;28;962;-78
2022/12/26 14:43:36;;;;;;;;;;;;;;;21.24;27.66;98804.28;5096253;28;1125;-78
2022/12/26 14:46:03;;;;;;;;;;;;;;;21.00;27.70;98802.53;5098753;28;975;-78
2022/12/26 14:48:28;;;;;;;;;;;;;;;20.97;27.92;98797.72;5080272;28;1906;-78
2022/12/26 14:50:54;;;;;;;;;;;;;;;20.71;28.40;98797.19;5098524;28;944;-78
2022/12/26 14:53:28;;;;;;;;;;;;;;;21.01;28.05;98798.47;5096984;28;1008;-77
2022/12/26 14:55:58;;;;;;;;;;;;;;;21.27;27.49;98789.25;5099257;28;1004;-78
2022/12/26 14:58:29;;;;;;;;;;;;;;;21.32;27.50;98791.66;5081101;28;912;-78
2022/12/26 15:00:55;;;;;;;;;;;;;;;20.99;28.05;98800.94;5100296;28;958;-78
2022/12/26 15:03:21;;;;;;;;;;;;;;;20.72;28.42;98798.78;5099422;28;1024;-78
2022/12/26 15:05:47;;;;;;;;;;;;;;;20.56;28.43;98801.38;5100163;28;851;-79
2022/12/26 15:08:23;;;;;;;;;;;;;;;21.11;27.55;98802.41;5098089;28;1893;-78
2022/12/26 15:10:51;;;;;;;;;;;;;;;21.14;27.55;98796.72;5099387;28;936;-77
2022/12/26 15:13:39;;;;;;;;;;;;;;;21.44;27.37;98795.13;5098879;28;911;-78